Time;durP1;ratioP1;P1;durP2;ratioP2;P2;SDS_P1;SDS_P2;PMS_P1;PMS_P2;Temp;Humidity;BMP_temperature;BMP_pressure;BME280_temperature;BME280_humidity;BME280_pressure;Samples;Min_cycle;Max_cycle;Signal;HPM_P1;HPM_P2
2022/08/10 00:01:18;;;;;;;1.83;1.73;;;;;;;16.54;100.00;101779.91;7683798;23;20016;-86
2022/08/10 00:04:22;;;;;;;2.72;1.70;;;;;;;16.53;100.00;101788.72;7706000;23;20632;-86
2022/08/10 00:07:24;;;;;;;3.80;1.75;;;;;;;16.53;100.00;101790.50;7705281;23;20020;-86
2022/08/10 00:10:26;;;;;;;3.53;1.80;;;;;;;16.53;100.00;101796.56;7677610;23;20017;-86
2022/08/10 00:13:29;;;;;;;4.65;1.77;;;;;;;16.50;100.00;101793.41;7704442;23;20020;-86
2022/08/10 00:16:31;;;;;;;3.22;2.08;;;;;;;16.48;100.00;101790.91;7705210;23;20031;-86
2022/08/10 00:19:33;;;;;;;3.03;1.50;;;;;;;16.46;100.00;101792.81;7705045;23;20044;-86
2022/08/10 00:22:54;;;;;;;2.15;1.60;;;;;;;16.41;100.00;101792.38;7701769;23;20040;-86
2022/08/10 00:25:59;;;;;;;3.55;1.80;;;;;;;16.40;100.00;101795.09;7704256;23;20131;-86
2022/08/10 00:29:01;;;;;;;4.03;2.08;;;;;;;16.39;100.00;101793.44;7678490;23;20020;-86
2022/08/10 00:32:10;;;;;;;3.25;1.92;;;;;;;16.35;100.00;101793.72;7705100;23;20104;-86
2022/08/10 00:35:12;;;;;;;2.78;1.88;;;;;;;16.31;100.00;101792.28;7705022;23;20020;-86
2022/08/10 00:38:14;;;;;;;2.50;1.80;;;;;;;16.27;100.00;101783.06;7678482;23;20054;-86
2022/08/10 00:41:16;;;;;;;4.60;1.67;;;;;;;16.24;100.00;101785.91;7704860;23;20691;-86
2022/08/10 00:44:18;;;;;;;2.05;1.85;;;;;;;16.18;100.00;101783.00;7678477;23;20027;-86
2022/08/10 00:47:21;;;;;;;4.28;1.80;;;;;;;16.11;100.00;101778.28;7705094;23;20044;-86
2022/08/10 00:50:38;;;;;;;2.83;2.00;;;;;;;16.07;100.00;101776.88;7700768;23;20459;-86
2022/08/10 00:53:40;;;;;;;3.47;2.08;;;;;;;16.01;100.00;101772.16;7701858;23;20443;-86
2022/08/10 00:56:42;;;;;;;3.80;1.90;;;;;;;15.95;100.00;101764.84;7704372;23;20326;-86
2022/08/10 01:00:08;;;;;;;2.78;2.15;;;;;;;15.92;100.00;101765.06;7705106;23;20024;-86
2022/08/10 01:03:10;;;;;;;3.78;2.10;;;;;;;15.89;100.00;101762.72;7704868;23;20017;-86
2022/08/10 01:06:44;;;;;;;2.70;1.85;;;;;;;15.84;100.00;101767.47;7703691;23;20040;-86
2022/08/10 01:10:11;;;;;;;2.58;2.08;;;;;;;15.79;100.00;101759.19;7552223;23;20057;-86
2022/08/10 01:13:34;;;;;;;2.03;1.63;;;;;;;15.77;100.00;101761.09;7551089;23;20041;-86
2022/08/10 01:16:51;;;;;;;3.83;2.03;;;;;;;15.72;100.00;101761.47;7553152;23;20030;-86
2022/08/10 01:20:19;;;;;;;2.58;2.35;;;;;;;15.69;100.00;101757.31;7529867;23;20445;-86
2022/08/10 01:23:47;;;;;;;3.72;2.17;;;;;;;15.68;100.00;101760.88;7553212;23;20026;-86
2022/08/10 01:27:20;;;;;;;2.58;2.10;;;;;;;15.66;100.00;101754.13;7551900;23;20026;-86
2022/08/10 01:30:31;;;;;;;5.43;2.28;;;;;;;15.65;100.00;101755.03;7551784;23;20221;-86
2022/08/10 01:33:40;;;;;;;3.17;1.90;;;;;;;15.63;100.00;101754.38;7528899;23;20138;-86
2022/08/10 01:37:07;;;;;;;1.90;1.60;;;;;;;15.59;100.00;101751.16;7552291;23;20026;-86
2022/08/10 01:40:12;;;;;;;3.33;1.77;;;;;;;15.60;100.00;101746.75;7552116;23;20037;-86
2022/08/10 01:43:19;;;;;;;2.30;2.10;;;;;;;15.55;100.00;101749.75;7552414;23;20026;-86
2022/08/10 01:46:24;;;;;;;3.50;2.55;;;;;;;15.51;100.00;101745.75;7630379;23;20106;-86
2022/08/10 01:49:28;;;;;;;3.45;2.03;;;;;;;15.48;100.00;101752.03;7702047;23;20075;-86
2022/08/10 01:52:33;;;;;;;2.28;1.80;;;;;;;15.46;100.00;101747.88;7703458;23;20052;-86
2022/08/10 01:55:37;;;;;;;2.13;1.83;;;;;;;15.42;100.00;101747.28;7703870;23;20040;-86
2022/08/10 01:58:41;;;;;;;3.50;1.80;;;;;;;15.42;100.00;101747.28;7676449;23;20056;-86
2022/08/10 02:01:48;;;;;;;2.28;1.70;;;;;;;15.39;100.00;101744.94;7652473;23;20114;-86
2022/08/10 02:04:53;;;;;;;4.68;2.10;;;;;;;15.39;100.00;101739.72;7677833;23;20435;-86
2022/08/10 02:08:02;;;;;;;2.58;2.28;;;;;;;15.37;100.00;101744.22;7703359;23;20024;-86
2022/08/10 02:11:05;;;;;;;2.70;2.30;;;;;;;15.37;100.00;101735.56;7703347;23;20028;-86
2022/08/10 02:14:08;;;;;;;3.78;1.98;;;;;;;15.36;100.00;101739.16;7703307;23;20632;-86
2022/08/10 02:17:16;;;;;;;2.67;2.00;;;;;;;15.31;100.00;101742.13;7676850;23;20020;-86
2022/08/10 02:20:45;;;;;;;3.95;2.20;;;;;;;15.28;100.00;101742.38;7703358;23;20032;-87
2022/08/10 02:23:47;;;;;;;6.95;1.88;;;;;;;15.25;100.00;101743.44;7703496;23;20022;-86
2022/08/10 02:27:02;;;;;;;3.08;2.10;;;;;;;15.21;100.00;101752.44;7703763;23;20038;-86
2022/08/10 02:30:06;;;;;;;3.70;2.33;;;;;;;15.21;100.00;101749.00;7703585;23;20143;-86
2022/08/10 02:33:09;;;;;;;3.38;1.85;;;;;;;15.19;100.00;101748.31;7703607;23;20020;-86
2022/08/10 02:36:12;;;;;;;3.78;1.83;;;;;;;15.17;100.00;101752.81;7676318;23;20082;-86
2022/08/10 02:39:16;;;;;;;2.00;1.45;;;;;;;15.15;100.00;101747.69;7676361;23;20540;-86
2022/08/10 02:42:30;;;;;;;2.58;1.95;;;;;;;15.12;100.00;101750.56;7703618;23;20016;-86
2022/08/10 02:46:09;;;;;;;3.45;2.00;;;;;;;15.07;100.00;101755.31;7703070;23;20386;-86
2022/08/10 02:49:19;;;;;;;2.42;1.90;;;;;;;15.04;100.00;101755.56;7703396;23;20390;-86
2022/08/10 02:52:30;;;;;;;4.20;1.98;;;;;;;15.02;100.00;101766.09;7676275;23;20024;-86
2022/08/10 02:55:53;;;;;;;3.05;2.22;;;;;;;14.96;100.00;101760.53;7702728;23;20024;-86
2022/08/10 02:59:04;;;;;;;2.30;2.10;;;;;;;14.99;100.00;101757.69;7702178;23;20029;-86
2022/08/10 03:02:10;;;;;;;2.95;2.28;;;;;;;14.94;100.00;101752.81;7702999;23;20119;-86
2022/08/10 03:05:14;;;;;;;4.55;2.40;;;;;;;14.97;100.00;101752.59;7701281;23;20027;-86
2022/08/10 03:08:20;;;;;;;2.33;1.90;;;;;;;14.92;100.00;101757.31;7702456;23;20103;-86
2022/08/10 03:11:26;;;;;;;5.40;2.35;;;;;;;14.90;100.00;101750.56;7675710;23;20017;-85
2022/08/10 03:14:49;;;;;;;2.35;2.15;;;;;;;14.86;100.00;101748.22;7703035;23;20477;-86
2022/08/10 03:17:52;;;;;;;4.00;1.90;;;;;;;14.84;100.00;101757.94;7702800;23;20021;-85
2022/08/10 03:21:00;;;;;;;2.97;2.05;;;;;;;14.79;100.00;101757.44;7677361;23;20025;-86
2022/08/10 03:24:04;;;;;;;3.22;2.20;;;;;;;14.77;100.00;101750.69;7674816;23;20028;-86
2022/08/10 03:27:27;;;;;;;3.13;2.15;;;;;;;14.71;100.00;101748.53;7702686;23;20028;-86
2022/08/10 03:30:30;;;;;;;2.92;2.10;;;;;;;14.68;100.00;101748.78;7704917;23;20152;-86
2022/08/10 03:33:38;;;;;;;2.30;2.05;;;;;;;14.62;100.00;101750.09;7680077;23;20359;-86
2022/08/10 03:36:41;;;;;;;3.08;2.17;;;;;;;14.59;100.00;101745.13;7706180;23;20024;-86
2022/08/10 03:39:45;;;;;;;6.35;2.38;;;;;;;14.52;100.00;101736.91;7705800;23;20020;-86
2022/08/10 03:42:50;;;;;;;2.92;2.10;;;;;;;14.49;100.00;101734.53;7705639;23;20105;-86
2022/08/10 03:45:54;;;;;;;5.88;2.58;;;;;;;14.46;100.00;101739.13;7704956;23;20021;-86
2022/08/10 03:49:00;;;;;;;5.63;2.70;;;;;;;14.43;100.00;101735.00;7705740;23;20016;-86
2022/08/10 03:52:05;;;;;;;2.75;2.17;;;;;;;14.43;100.00;101730.63;7705280;23;20071;-86
2022/08/10 03:55:07;;;;;;;5.15;2.30;;;;;;;14.41;100.00;101734.31;7677621;23;20020;-86
2022/08/10 03:58:10;;;;;;;2.75;2.50;;;;;;;14.41;100.00;101739.53;7704871;23;20028;-85
2022/08/10 04:01:14;;;;;;;3.53;2.30;;;;;;;14.39;100.00;101734.41;7653208;23;20099;-87
2022/08/10 04:04:17;;;;;;;5.35;2.63;;;;;;;14.40;100.00;101735.22;7705177;23;20048;-86
2022/08/10 04:07:25;;;;;;;2.97;2.60;;;;;;;14.40;100.00;101735.22;7704990;23;20051;-86
2022/08/10 04:10:27;;;;;;;4.15;2.40;;;;;;;14.36;100.00;101736.41;7678769;23;20027;-86
2022/08/10 04:13:29;;;;;;;7.60;2.50;;;;;;;14.38;100.00;101735.38;7678777;23;20021;-86
2022/08/10 04:16:31;;;;;;;3.95;2.63;;;;;;;14.40;100.00;101736.06;7705556;23;20792;-86
2022/08/10 04:19:42;;;;;;;3.85;2.70;;;;;;;14.41;100.00;101742.94;7704323;23;20019;-86
2022/08/10 04:22:45;;;;;;;;;;;;;;;14.43;100.00;101742.81;7705096;23;20436;-86
2022/08/10 04:25:48;;;;;;;4.55;2.30;;;;;;;14.44;100.00;101747.91;7704569;23;19924;-86
2022/08/10 04:28:52;;;;;;;3.30;2.33;;;;;;;14.45;100.00;101740.94;7702384;23;20467;-86
2022/08/10 04:31:54;;;;;;;3.15;2.40;;;;;;;14.48;100.00;101751.09;7669490;23;20067;-86
2022/08/10 04:34:57;;;;;;;3.45;2.50;;;;;;;14.51;100.00;101752.66;7702947;23;20407;-87
2022/08/10 04:38:03;;;;;;;3.13;2.30;;;;;;;14.53;100.00;101753.38;7703422;23;20020;-86
2022/08/10 04:41:05;;;;;;;3.72;2.30;;;;;;;14.55;100.00;101760.16;7676375;23;20016;-86
2022/08/10 04:44:07;;;;;;;2.95;2.50;;;;;;;14.59;100.00;101758.16;7677062;23;20025;-86
2022/08/10 04:47:09;;;;;;;3.72;2.33;;;;;;;14.62;100.00;101761.34;7675866;23;20032;-86
2022/08/10 04:50:11;;;;;;;2.80;2.50;;;;;;;14.67;100.00;101763.59;7702127;23;20242;-86
2022/08/10 04:53:15;;;;;;;4.22;2.42;;;;;;;14.72;100.00;101773.69;7703354;23;20024;-86
2022/08/10 04:56:17;;;;;;;3.50;2.72;;;;;;;14.79;100.00;101778.31;7676841;23;20027;-86
2022/08/10 04:59:19;;;;;;;3.45;2.38;;;;;;;14.85;100.00;101774.38;7702769;23;20016;-86
2022/08/10 05:02:21;;;;;;;3.63;2.40;;;;;;;14.95;100.00;101770.13;7703067;23;20635;-86
2022/08/10 05:05:32;;;;;;;3.15;2.30;;;;;;;15.01;100.00;101771.44;7703511;23;20028;-86
2022/08/10 05:08:34;;;;;;;4.22;2.72;;;;;;;15.04;100.00;101773.81;7703400;23;20758;-86
2022/08/10 05:11:36;;;;;;;3.53;2.30;;;;;;;15.12;100.00;101773.19;7702416;23;20852;-86
2022/08/10 05:14:38;;;;;;;3.00;2.45;;;;;;;15.16;100.00;101769.41;7704605;23;20017;-87
2022/08/10 05:17:41;;;;;;;3.47;2.63;;;;;;;15.20;100.00;101773.41;7702775;23;20020;-86
2022/08/10 05:21:04;;;;;;;3.03;2.50;;;;;;;15.26;100.00;101783.38;7703778;23;20362;-87
2022/08/10 05:24:06;;;;;;;4.97;2.53;;;;;;;15.30;100.00;101779.56;7702727;23;20131;-86
2022/08/10 05:27:08;;;;;;;5.25;3.13;;;;;;;15.31;100.00;101775.22;7702744;23;20016;-86
2022/08/10 05:30:21;;;;;;;6.45;3.47;;;;;;;15.35;100.00;101781.81;7702697;23;20134;-86
2022/08/10 05:33:26;;;;;;;7.40;3.20;;;;;;;15.40;100.00;101777.06;7676023;23;20028;-86
2022/08/10 05:36:28;;;;;;;3.92;3.50;;;;;;;15.45;100.00;101781.00;7676593;23;20044;-86
2022/08/10 05:39:31;;;;;;;6.53;3.08;;;;;;;15.50;100.00;101780.59;7701774;23;20020;-86
2022/08/10 05:42:33;;;;;;;6.40;3.17;;;;;;;15.56;100.00;101784.53;7698717;23;20391;-86
2022/08/10 05:45:35;;;;;;;7.32;3.20;;;;;;;15.62;100.00;101784.84;7701107;23;20024;-86
2022/08/10 05:48:57;;;;;;;3.55;3.05;;;;;;;15.69;100.00;101785.19;7701569;23;20040;-86
2022/08/10 05:52:03;;;;;;;4.07;2.78;;;;;;;15.76;100.00;101781.16;7671776;23;20024;-86
2022/08/10 05:55:05;;;;;;;6.72;3.08;;;;;;;15.82;100.00;101788.47;7700013;23;20017;-87
2022/08/10 05:58:08;;;;;;;5.00;3.10;;;;;;;15.86;100.00;101782.06;7699785;23;20021;-86
2022/08/10 06:01:12;;;;;;;4.90;3.10;;;;;;;15.90;100.00;101786.09;7673283;23;20017;-86
2022/08/10 06:04:32;;;;;;;7.72;3.03;;;;;;;16.01;100.00;101787.00;7672570;23;20027;-87
2022/08/10 06:07:39;;;;;;;6.22;2.90;;;;;;;16.09;100.00;101790.63;7700800;23;20020;-86
2022/08/10 06:10:43;;;;;;;5.05;3.13;;;;;;;16.14;100.00;101791.06;7674170;23;20128;-86
2022/08/10 06:17:31;;;;;;;3.47;2.72;;;;;;;16.32;100.00;101788.75;7701349;23;20495;-87
2022/08/10 06:20:33;;;;;;;5.60;2.85;;;;;;;16.37;100.00;101788.34;7699767;23;20023;-87
2022/08/10 06:23:38;;;;;;;4.85;2.75;;;;;;;16.42;100.00;101790.56;7700780;23;20115;-87
2022/08/10 06:26:40;;;;;;;4.80;3.10;;;;;;;16.46;100.00;101795.41;7700228;23;20021;-87
2022/08/10 06:29:44;;;;;;;3.78;2.92;;;;;;;16.51;100.00;101793.25;7699939;23;20024;-87
2022/08/10 06:32:48;;;;;;;6.88;3.53;;;;;;;16.58;100.00;101797.00;7700474;23;20155;-87
2022/08/10 06:35:54;;;;;;;4.40;3.03;;;;;;;16.64;100.00;101800.06;7700593;23;20364;-87
2022/08/10 06:38:56;;;;;;;3.35;2.70;;;;;;;16.66;100.00;101804.19;7700001;23;20501;-87
2022/08/10 06:42:31;;;;;;;6.22;3.20;;;;;;;16.70;100.00;101810.00;7677669;23;20016;-87
2022/08/10 06:46:02;;;;;;;5.43;3.10;;;;;;;16.74;100.00;101808.78;7672492;23;20024;-87
2022/08/10 06:49:10;;;;;;;4.60;3.17;;;;;;;16.79;100.00;101811.88;7699919;23;20111;-87
2022/08/10 06:52:13;;;;;;;4.50;3.10;;;;;;;16.83;100.00;101802.81;7671816;23;20455;-87
2022/08/10 06:55:22;;;;;;;6.72;3.35;;;;;;;16.89;100.00;101812.72;7699741;23;20123;-87
2022/08/10 06:58:55;;;;;;;5.13;3.20;;;;;;;16.94;100.00;101802.72;7699478;23;20691;-86
2022/08/10 07:02:03;;;;;;;7.32;3.13;;;;;;;17.00;100.00;101810.03;7672958;23;20448;-86
2022/08/10 07:05:10;;;;;;;4.70;3.08;;;;;;;17.06;100.00;101805.25;7699915;23;20444;-87
2022/08/10 07:08:16;;;;;;;3.97;2.83;;;;;;;17.10;100.00;101806.63;7672178;23;20459;-87
2022/08/10 07:11:21;;;;;;;6.25;2.78;;;;;;;17.14;100.00;101803.63;7698990;23;20473;-87
2022/08/10 07:14:24;;;;;;;6.15;3.33;;;;;;;17.22;100.00;101803.78;7698430;23;20025;-87
2022/08/10 07:17:29;;;;;;;5.15;2.38;;;;;;;17.31;100.00;101796.91;7699168;23;20020;-87
2022/08/10 07:20:34;;;;;;;6.35;2.88;;;;;;;17.40;100.00;101803.16;7674143;23;20020;-87
2022/08/10 07:23:38;;;;;;;3.42;2.50;;;;;;;17.48;99.79;101802.47;7698838;23;20017;-87
2022/08/10 07:27:02;;;;;;;3.35;2.50;;;;;;;17.59;97.64;101805.81;7671916;23;20032;-87
2022/08/10 07:30:05;;;;;;;3.40;2.70;;;;;;;17.71;96.79;101805.66;7699266;23;20372;-87
2022/08/10 07:33:08;;;;;;;4.43;2.85;;;;;;;17.83;94.26;101799.38;7700189;23;20628;-87
2022/08/10 07:36:13;;;;;;;3.83;2.55;;;;;;;17.94;90.99;101799.25;7673309;23;20031;-87
2022/08/10 07:39:16;;;;;;;5.00;2.60;;;;;;;18.04;90.76;101800.06;7699177;23;20585;-87
2022/08/10 07:42:39;;;;;;;5.50;3.00;;;;;;;18.13;89.19;101794.94;7698975;23;20561;-87
2022/08/10 07:45:47;;;;;;;5.57;2.50;;;;;;;18.20;89.31;101799.50;7699849;23;20028;-87
2022/08/10 07:48:58;;;;;;;4.45;2.40;;;;;;;18.33;88.44;101801.00;7700144;23;20025;-87
2022/08/10 07:52:05;;;;;;;6.03;2.80;;;;;;;18.40;88.02;101796.84;7699071;23;20021;-87
2022/08/10 07:55:13;;;;;;;5.63;2.78;;;;;;;18.48;87.95;101802.19;7699317;23;20051;-87
2022/08/10 07:58:17;;;;;;;3.40;2.42;;;;;;;18.58;87.47;101800.38;7700040;23;20257;-86
2022/08/10 08:01:26;;;;;;;3.15;2.50;;;;;;;18.66;87.27;101808.38;7698287;23;20020;-87
2022/08/10 08:04:29;;;;;;;3.88;2.55;;;;;;;18.79;85.23;101802.84;7671712;23;20059;-87
2022/08/10 08:07:32;;;;;;;4.88;2.80;;;;;;;18.88;85.06;101801.13;7698557;23;20020;-87
2022/08/10 08:10:36;;;;;;;4.18;2.30;;;;;;;18.96;84.60;101801.25;7699456;23;20024;-87
2022/08/10 08:13:39;;;;;;;6.32;2.88;;;;;;;19.04;84.57;101797.91;7698841;23;20022;-87
2022/08/10 08:16:45;;;;;;;6.53;2.55;;;;;;;19.24;83.39;101794.22;7700464;23;20096;-87
2022/08/10 08:19:49;;;;;;;7.22;2.95;;;;;;;19.34;83.41;101797.59;7700712;23;20090;-87
2022/08/10 08:22:57;;;;;;;6.38;2.92;;;;;;;19.44;83.17;101787.03;7675419;23;20024;-87
2022/08/10 08:26:22;;;;;;;5.15;2.50;;;;;;;19.60;82.58;101796.88;7702185;23;20024;-87
2022/08/10 08:29:25;;;;;;;5.43;2.92;;;;;;;19.72;81.73;101792.25;7700027;23;20040;-87
2022/08/10 08:32:30;;;;;;;4.47;2.90;;;;;;;19.85;80.84;101790.09;7673595;23;20025;-87
2022/08/10 08:35:32;;;;;;;8.68;3.17;;;;;;;19.97;79.71;101788.88;7700739;23;20016;-87
2022/08/10 08:38:36;;;;;;;9.90;2.90;;;;;;;20.08;78.76;101787.00;7673578;23;20029;-87
2022/08/10 08:42:06;;;;;;;7.18;2.80;;;;;;;20.25;76.60;101780.88;7701649;23;20683;-87
2022/08/10 08:45:28;;;;;;;3.72;2.47;;;;;;;20.33;76.58;101780.09;7701393;23;20324;-87
2022/08/10 08:49:08;;;;;;;4.78;3.05;;;;;;;20.41;77.01;101786.22;7674365;23;20024;-87
2022/08/10 08:52:23;;;;;;;4.20;2.60;;;;;;;20.53;76.71;101784.16;7549433;23;20822;-87
2022/08/10 08:55:44;;;;;;;5.43;3.17;;;;;;;20.64;75.68;101775.19;7526075;23;20101;-88
2022/08/10 08:59:28;;;;;;;8.93;3.00;;;;;;;20.74;74.88;101783.81;7550030;23;20619;-88
2022/08/10 09:03:07;;;;;;;5.78;2.80;;;;;;;20.89;74.90;101777.94;7525375;23;20030;-88
2022/08/10 09:06:45;;;;;;;10.30;2.80;;;;;;;21.03;74.36;101785.25;7549498;23;20034;-87
2022/08/10 09:09:56;;;;;;;5.28;2.70;;;;;;;21.20;72.27;101780.88;7548152;23;20046;-88
2022/08/10 09:13:29;;;;;;;4.68;2.85;;;;;;;21.36;71.82;101772.19;7525191;23;20109;-87
2022/08/10 09:16:42;;;;;;;3.83;2.40;;;;;;;21.50;71.35;101769.75;7549282;23;20331;-88
2022/08/10 09:19:50;;;;;;;7.45;2.60;;;;;;;21.61;70.04;101767.81;7549338;23;20137;-87
2022/08/10 09:23:33;;;;;;;6.65;3.05;;;;;;;21.77;69.20;101761.72;7624270;23;20241;-87
2022/08/10 09:27:03;;;;;;;7.68;2.97;;;;;;;21.88;67.64;101762.19;7701691;23;20336;-87
2022/08/10 09:30:06;;;;;;;;;;;;;;;21.98;66.57;101754.13;7674132;23;20024;-87
2022/08/10 09:33:14;;;;;;;3.05;2.50;;;;;;;22.10;66.16;101763.34;7700514;23;20182;-87
2022/08/10 09:36:41;;;;;;;4.95;2.63;;;;;;;22.28;64.35;101747.34;7672972;23;20442;-87
2022/08/10 09:39:58;;;;;;;3.47;2.17;;;;;;;22.41;63.47;101752.13;7701042;23;20356;-88
2022/08/10 09:43:43;;;;;;;3.85;2.58;;;;;;;22.58;62.09;101745.81;7701681;23;20439;-87
2022/08/10 09:46:57;;;;;;;3.92;2.40;;;;;;;22.65;60.80;101745.09;7700460;23;20028;-88
2022/08/10 09:50:21;;;;;;;7.32;2.80;;;;;;;22.73;60.14;101748.56;7701027;23;20082;-90
2022/08/10 09:53:47;;;;;;;5.28;2.30;;;;;;;22.87;59.97;101754.91;7697820;23;20339;-91
2022/08/10 09:57:02;;;;;;;4.30;2.70;;;;;;;22.93;58.70;101743.69;7673196;23;20179;-91
2022/08/10 10:00:33;;;;;;;5.95;2.28;;;;;;;23.08;57.99;101743.78;7700930;23;20031;-91
2022/08/10 10:03:45;;;;;;;3.00;2.30;;;;;;;23.18;57.39;101743.56;7700837;23;20024;-91
2022/08/10 10:06:55;;;;;;;3.60;2.05;;;;;;;23.43;54.95;101733.66;7674568;23;20031;-91
2022/08/10 10:10:12;;;;;;;4.38;2.33;;;;;;;23.59;52.63;101738.00;7649459;23;20024;-91
2022/08/10 10:13:28;;;;;;;2.92;2.33;;;;;;;23.76;54.28;101734.25;7700066;23;20024;-91
2022/08/10 10:17:29;;;;;;;2.70;2.20;;;;;;;23.87;52.64;101740.91;7673980;23;20028;-92
2022/08/10 10:20:50;;;;;;;3.58;2.42;;;;;;;23.93;52.84;101732.28;7548271;23;20137;-91
2022/08/10 10:24:15;;;;;;;3.28;2.38;;;;;;;24.01;51.83;101726.91;7525962;23;20045;-92
2022/08/10 10:27:29;;;;;;;4.43;2.00;;;;;;;24.20;50.42;101722.91;7549949;23;20374;-91
2022/08/10 10:30:44;;;;;;;4.35;2.28;;;;;;;24.34;51.73;101715.16;7548868;23;20586;-91
2022/08/10 10:34:24;;;;;;;4.85;2.03;;;;;;;24.50;50.74;101717.66;7548710;23;20026;-92
2022/08/10 10:37:29;;;;;;;3.88;2.10;;;;;;;24.69;48.66;101725.03;7547801;23;20109;-91
2022/08/10 10:41:02;;;;;;;4.05;2.00;;;;;;;24.75;49.47;101706.75;7548179;23;20046;-91
2022/08/10 10:44:23;;;;;;;3.00;1.98;;;;;;;24.95;49.29;101699.84;7548663;23;20030;-91
2022/08/10 10:48:07;;;;;;;3.75;2.10;;;;;;;25.14;47.75;101696.56;7524785;23;20022;-91
2022/08/10 10:51:26;;;;;;;5.65;2.08;;;;;;;25.30;48.86;101695.53;7513014;23;20057;-92
2022/08/10 10:54:35;;;;;;;;;;;;;;;25.38;47.44;101693.75;7492501;23;20035;-91
2022/08/10 10:58:17;;;;;;;5.63;2.25;;;;;;;25.40;46.31;101689.91;7559336;23;19953;-88
2022/08/10 11:01:56;;;;;;;2.97;2.08;;;;;;;25.38;46.77;101693.75;7584375;23;20026;-89
2022/08/10 11:05:24;;;;;;;2.20;1.67;;;;;;;25.43;46.39;101688.69;7442575;23;20031;-88
2022/08/10 11:08:39;;;;;;;4.70;1.70;;;;;;;25.59;46.59;101696.41;7304741;24;20039;-88
2022/08/10 11:11:47;;;;;;;3.35;2.13;;;;;;;25.67;45.55;101688.28;7304782;24;20044;-88
2022/08/10 11:15:08;;;;;;;3.75;2.20;;;;;;;25.74;43.89;101691.81;7304682;24;20037;-87
2022/08/10 11:18:45;;;;;;;2.85;1.83;;;;;;;25.83;43.57;101684.50;7304875;24;20030;-88
2022/08/10 11:22:05;;;;;;;2.17;1.70;;;;;;;25.91;45.92;101689.72;7295085;24;20805;-89
2022/08/10 11:25:27;;;;;;;1.90;1.75;;;;;;;25.97;44.26;101691.56;7304777;24;20106;-89
2022/08/10 11:28:39;;;;;;;3.72;1.90;;;;;;;26.04;43.70;101688.13;7340979;24;20032;-88
2022/08/10 11:31:59;;;;;;;3.67;1.73;;;;;;;26.06;43.66;101692.25;7349183;24;20028;-88
2022/08/10 11:35:26;;;;;;;2.70;1.88;;;;;;;26.15;43.57;101683.09;7372556;24;20048;-90
2022/08/10 11:39:08;;;;;;;3.05;1.70;;;;;;;26.18;43.71;101681.88;7373790;24;20618;-89
2022/08/10 11:42:30;;;;;;;2.97;2.03;;;;;;;26.20;42.91;101674.56;7447750;23;20106;-89
2022/08/10 11:45:43;;;;;;;3.35;1.83;;;;;;;26.23;42.88;101673.34;7612989;23;20035;-90
2022/08/10 11:49:02;;;;;;;2.75;1.55;;;;;;;26.36;45.02;101678.69;7699211;23;20024;-90
2022/08/10 11:52:20;;;;;;;2.40;1.77;;;;;;;26.61;42.55;101679.06;7700896;23;20017;-90
2022/08/10 11:55:25;;;;;;;2.80;1.70;;;;;;;26.79;41.57;101668.69;7674361;23;20027;-89
2022/08/10 12:01:56;;;;;;;1.75;1.60;;;;;;;27.16;39.98;101663.03;7698196;23;20020;-90
2022/08/10 12:05:26;;;;;;;7.22;2.00;;;;;;;27.33;41.45;101658.97;7702812;23;20048;-89
2022/08/10 12:08:50;;;;;;;4.23;1.70;;;;;;;27.50;41.39;101659.34;7702900;23;20341;-89
2022/08/10 12:12:12;;;;;;;4.57;1.67;;;;;;;27.76;40.34;101660.38;7703415;23;20248;-89
2022/08/10 12:15:51;;;;;;;3.60;1.77;;;;;;;27.93;40.17;101656.25;7703115;23;20024;-90
2022/08/10 12:19:09;;;;;;;2.30;1.88;;;;;;;28.06;39.52;101650.06;7702615;23;20025;-90
2022/08/10 12:22:17;;;;;;;3.63;1.80;;;;;;;28.12;38.00;101647.41;7701241;23;20427;-90
2022/08/10 12:25:39;;;;;;;2.33;1.58;;;;;;;28.28;40.16;101646.09;7676613;23;20052;-90
2022/08/10 12:29:54;;;;;;;2.45;1.65;;;;;;;28.55;38.10;101640.69;7702763;23;20061;-89
2022/08/10 12:33:13;;;;;;;1.65;1.45;;;;;;;28.73;36.98;101630.09;7550429;23;20054;-90
2022/08/10 12:36:21;;;;;;;;;;;;;;;28.89;37.27;101626.09;7548770;23;20026;-89
2022/08/10 12:39:30;;;;;;;6.60;1.55;;;;;;;29.06;36.88;101621.06;7524611;23;19965;-89
2022/08/10 12:42:41;;;;;;;2.92;1.73;;;;;;;29.26;37.71;101628.91;7549132;23;20030;-89
2022/08/10 12:46:17;;;;;;;1.65;1.55;;;;;;;29.50;38.04;101621.13;7524988;23;20349;-89
2022/08/10 12:49:31;;;;;;;1.67;1.42;;;;;;;29.65;36.33;101618.09;7551277;23;20042;-89
2022/08/10 12:52:50;;;;;;;3.85;1.67;;;;;;;29.72;34.50;101611.66;7551620;23;20029;-90
2022/08/10 12:55:53;;;;;;;2.20;1.50;;;;;;;29.79;34.99;101601.75;7550889;23;20074;-90
2022/08/10 12:58:56;;;;;;;2.53;1.67;;;;;;;29.94;35.92;101603.22;7527758;23;20030;-89
2022/08/10 13:02:03;;;;;;;2.25;1.58;;;;;;;30.11;34.59;101600.72;7561372;23;21539;-89
2022/08/10 13:05:13;;;;;;;4.25;1.48;;;;;;;30.31;34.83;101600.50;7665459;23;20339;-90
2022/08/10 13:12:01;;;;;;;1.48;1.38;;;;;;;30.61;32.80;101590.63;7664861;23;20104;-89
2022/08/10 13:15:27;;;;;;;3.03;1.33;;;;;;;30.64;33.12;101582.13;7550926;23;20035;-89
2022/08/10 13:18:51;;;;;;;3.63;1.25;;;;;;;30.77;33.51;101589.13;7551807;23;20045;-89
2022/08/10 13:21:56;;;;;;;1.65;1.40;;;;;;;30.91;33.44;101579.06;7549699;23;20026;-88
2022/08/10 13:25:02;;;;;;;1.60;1.40;;;;;;;31.03;31.96;101593.28;7550984;23;20039;-89
2022/08/10 13:28:08;;;;;;;2.00;1.40;;;;;;;31.12;30.70;101577.69;7550261;23;20224;-89
2022/08/10 13:31:33;;;;;;;1.30;1.20;;;;;;;31.09;31.36;101578.16;7529984;23;20042;-89
2022/08/10 13:34:57;;;;;;;1.55;1.30;;;;;;;31.21;33.45;101568.25;7550535;23;20054;-89
2022/08/10 13:38:02;;;;;;;2.00;1.20;;;;;;;31.36;31.69;101567.78;7549990;23;20033;-89
2022/08/10 13:41:04;;;;;;;1.98;1.52;;;;;;;31.40;31.97;101560.13;7562247;23;20500;-89
2022/08/10 13:44:10;;;;;;;3.40;1.50;;;;;;;31.59;32.56;101564.28;7586605;23;20100;-89
2022/08/10 13:47:28;;;;;;;2.15;1.65;;;;;;;31.61;31.71;101564.06;7586539;23;20094;-89
2022/08/10 13:50:31;;;;;;;2.75;1.48;;;;;;;31.62;32.83;101563.78;7592262;23;20037;-90
2022/08/10 13:53:39;;;;;;;2.05;1.52;;;;;;;31.69;30.91;101555.63;7701506;23;20396;-89
2022/08/10 13:56:44;;;;;;;2.33;1.30;;;;;;;31.63;28.96;101560.09;7703281;23;20079;-89
2022/08/10 13:59:50;;;;;;;1.77;1.38;;;;;;;31.61;30.57;101556.81;7702537;23;20024;-90
2022/08/10 14:03:19;;;;;;;2.67;1.48;;;;;;;31.67;30.85;101555.06;7702102;23;20457;-90
2022/08/10 14:06:25;;;;;;;4.40;1.52;;;;;;;31.81;30.17;101556.41;7701450;23;20023;-89
2022/08/10 14:09:33;;;;;;;2.55;1.27;;;;;;;31.79;29.89;101547.00;7701446;23;20098;-89
2022/08/10 14:12:38;;;;;;;1.73;1.10;;;;;;;31.73;31.95;101541.53;7703090;23;20020;-89
2022/08/10 14:15:44;;;;;;;2.10;1.40;;;;;;;31.88;31.45;101541.03;7700454;23;20075;-89
2022/08/10 14:18:50;;;;;;;1.75;1.40;;;;;;;32.07;29.76;101538.19;7701665;23;20052;-90
2022/08/10 14:21:52;;;;;;;2.72;1.50;;;;;;;32.09;29.62;101534.19;7701629;23;20364;-90
2022/08/10 14:25:10;;;;;;;3.13;1.45;;;;;;;32.17;30.62;101533.00;7700833;23;20024;-89
2022/08/10 14:28:15;;;;;;;2.70;1.30;;;;;;;32.34;30.03;101533.84;7675409;23;20027;-90
2022/08/10 14:31:21;;;;;;;5.07;1.10;;;;;;;32.34;27.49;101523.09;7700549;23;20116;-90
2022/08/10 14:34:33;;;;;;;1.73;1.40;;;;;;;32.22;28.76;101524.25;7702071;23;20047;-90
2022/08/10 14:37:59;;;;;;;3.50;1.50;;;;;;;32.42;31.19;101521.09;7654520;23;20090;-89
2022/08/10 14:41:13;;;;;;;1.88;1.15;;;;;;;32.55;29.59;101513.59;7700982;23;20029;-89
2022/08/10 14:45:00;;;;;;;3.65;1.38;;;;;;;32.61;29.15;101512.59;7701748;23;20025;-89
2022/08/10 14:48:25;;;;;;;2.47;1.30;;;;;;;32.67;29.14;101516.19;7700663;23;20029;-89
2022/08/10 14:51:34;;;;;;;5.03;1.30;;;;;;;32.67;28.61;101515.34;7700657;23;20028;-90
2022/08/10 14:54:49;;;;;;;1.83;1.20;;;;;;;32.77;27.55;101504.78;7701562;23;20048;-90
2022/08/10 14:57:51;;;;;;;1.30;1.20;;;;;;;32.82;27.78;101500.31;7701430;23;20027;-90
2022/08/10 15:01:17;;;;;;;2.50;1.40;;;;;;;32.95;28.90;101501.84;7676188;23;20332;-90